Αρχική σελίδα
METAR-TAF:

METAR-TAF

Αεροδρόμια :

Κρατικός Αερολιμένας Μυκόνου

Μύκονος, Ελλάδα

γεωγραφικό πλάτος: 37-26-09N, γεωγραφικό μήκος: 025-20-45E, υψόμετρο: 123 μ

Παρών καιρός

Η αναφορά έγινε 11 ώρες και 57 λεπτά πριν, στις 17:50 UTC
Άνεμος 5 kt από Β
Θερμοκρασία 14°C
Υγρασία 77%
Πίεση 1022 hPa
Ορατότητα 10 χλμ και άνω
Λίγα νέφη σε ύψος 1200 πόδια

METAR: LGMK 151750Z 36005KT 9999 FEW012 14/10 Q1022

Χρόνος: 07:47 (05:47 UTC)

Πρόγνωση Καιρού

Η αναφορά έγινε 47 λεπτά πριν, στις 05:00 UTC
Η πρόγνωση ισχύει από τις 16 στις 06 UTC έως τις 16 στις 15 UTC
Άνεμος 5 kt από Β
Ορατότητα 10 χλμ και άνω
Λίγα νέφη σε ύψος 1200 πόδια
Διάσπαρτα νέφη σε ύψος 2000 πόδια
Πιθανότητα 30%
από 16 στις 06 UTC έως τις 16 στις 08 UTC
Ορατότητα: 5000 μ
Διάσπαρτα νέφη σε ύψος 800 πόδια
Αχλής

TAF: LGMK 160500Z 1606/1615 36005KT 9999 FEW012 SCT020 PROB30 1606/1608 5000 BR SCT008

Μετεωρολογικές αναφορές και προγνώσεις για περισσότερα από 4000 αεροδρόμια (δελτία METAR και TAF).

Οι διαθέσιμοι σταθμοί απεικονίζονται στο χάρτη με κίτρινες και κόκκινες κουκκίδες.

Μετακινήστε το ποντίκι πάνω από τις κουκκίδες για να δείτε το όνομα του σταθμού.

Στη συνέχεια, κάντε κλικ για να δείτε τις μετεωρολογικές αναφορές και τις προγνώσεις καιρού.

Για να αλλάξετε το χάρτη: κάντε κλικ στα πράσινα κουμπιά με τον μαύρο σταυρό για να ζουμάρετε, στο πράσινο κουμπί με την παύλα για να αφαιρέσετε το ζουμ ή στα πράσινα βέλη για να αντιπαραβάλλετε χάρτες.


METAR-TAF: